sensor_id;sensor_type;location;lat;lon;timestamp;P1;durP1;ratioP1;P2;durP2;ratioP2
67554;SDS011;54385;53.516;49.456;2023-05-27T00:00:46;14.25;;;6.90;;
67554;SDS011;54385;53.516;49.456;2023-05-27T00:03:13;8.48;;;6.82;;
67554;SDS011;54385;53.516;49.456;2023-05-27T00:05:39;11.45;;;6.43;;
67554;SDS011;54385;53.516;49.456;2023-05-27T00:08:06;12.13;;;7.85;;
67554;SDS011;54385;53.516;49.456;2023-05-27T00:10:32;10.38;;;7.22;;
67554;SDS011;54385;53.516;49.456;2023-05-27T00:12:59;13.02;;;6.88;;
67554;SDS011;54385;53.516;49.456;2023-05-27T00:15:25;18.48;;;8.18;;
67554;SDS011;54385;53.516;49.456;2023-05-27T00:17:52;9.32;;;6.32;;
67554;SDS011;54385;53.516;49.456;2023-05-27T00:20:21;11.63;;;6.97;;
67554;SDS011;54385;53.516;49.456;2023-05-27T00:22:49;11.30;;;7.18;;
67554;SDS011;54385;53.516;49.456;2023-05-27T00:25:16;10.25;;;6.53;;
67554;SDS011;54385;53.516;49.456;2023-05-27T00:27:46;16.10;;;6.63;;
67554;SDS011;54385;53.516;49.456;2023-05-27T00:30:13;11.55;;;6.38;;
67554;SDS011;54385;53.516;49.456;2023-05-27T00:32:40;9.13;;;6.00;;
67554;SDS011;54385;53.516;49.456;2023-05-27T00:35:06;12.90;;;6.53;;
67554;SDS011;54385;53.516;49.456;2023-05-27T00:37:34;16.45;;;6.82;;
67554;SDS011;54385;53.516;49.456;2023-05-27T00:40:01;10.30;;;6.38;;
67554;SDS011;54385;53.516;49.456;2023-05-27T00:42:28;11.25;;;6.85;;
67554;SDS011;54385;53.516;49.456;2023-05-27T00:44:54;14.63;;;6.40;;
67554;SDS011;54385;53.516;49.456;2023-05-27T00:47:21;12.88;;;6.57;;
67554;SDS011;54385;53.516;49.456;2023-05-27T00:49:48;8.32;;;6.03;;
67554;SDS011;54385;53.516;49.456;2023-05-27T00:52:15;11.45;;;6.72;;
67554;SDS011;54385;53.516;49.456;2023-05-27T00:54:42;12.10;;;6.20;;
67554;SDS011;54385;53.516;49.456;2023-05-27T00:57:08;12.02;;;6.15;;
67554;SDS011;54385;53.516;49.456;2023-05-27T00:59:35;13.48;;;6.35;;
67554;SDS011;54385;53.516;49.456;2023-05-27T01:02:01;18.95;;;7.07;;
67554;SDS011;54385;53.516;49.456;2023-05-27T01:04:28;10.43;;;5.90;;
67554;SDS011;54385;53.516;49.456;2023-05-27T01:06:58;9.20;;;6.40;;
67554;SDS011;54385;53.516;49.456;2023-05-27T01:09:59;10.25;;;6.25;;
67554;SDS011;54385;53.516;49.456;2023-05-27T01:12:35;12.38;;;6.43;;
67554;SDS011;54385;53.516;49.456;2023-05-27T01:15:14;13.25;;;6.53;;
67554;SDS011;54385;53.516;49.456;2023-05-27T01:17:40;11.10;;;6.40;;
67554;SDS011;54385;53.516;49.456;2023-05-27T01:20:11;16.35;;;6.60;;
67554;SDS011;54385;53.516;49.456;2023-05-27T01:22:39;14.98;;;6.72;;
67554;SDS011;54385;53.516;49.456;2023-05-27T01:25:08;13.38;;;6.10;;
67554;SDS011;54385;53.516;49.456;2023-05-27T01:27:35;11.45;;;7.38;;
67554;SDS011;54385;53.516;49.456;2023-05-27T01:30:06;14.27;;;6.65;;
67554;SDS011;54385;53.516;49.456;2023-05-27T01:32:39;14.35;;;6.75;;
67554;SDS011;54385;53.516;49.456;2023-05-27T01:37:52;11.65;;;5.80;;
67554;SDS011;54385;53.516;49.456;2023-05-27T01:40:20;12.98;;;6.18;;
67554;SDS011;54385;53.516;49.456;2023-05-27T01:42:54;13.20;;;6.85;;
67554;SDS011;54385;53.516;49.456;2023-05-27T01:45:22;14.82;;;6.15;;
67554;SDS011;54385;53.516;49.456;2023-05-27T01:47:50;11.60;;;6.13;;
67554;SDS011;54385;53.516;49.456;2023-05-27T01:50:16;12.70;;;6.40;;
67554;SDS011;54385;53.516;49.456;2023-05-27T01:52:43;9.93;;;6.00;;
67554;SDS011;54385;53.516;49.456;2023-05-27T01:55:09;15.23;;;6.00;;
67554;SDS011;54385;53.516;49.456;2023-05-27T01:57:36;14.32;;;6.10;;
67554;SDS011;54385;53.516;49.456;2023-05-27T02:00:03;15.30;;;6.20;;
67554;SDS011;54385;53.516;49.456;2023-05-27T02:02:39;15.65;;;6.38;;
67554;SDS011;54385;53.516;49.456;2023-05-27T02:05:06;12.60;;;5.15;;
67554;SDS011;54385;53.516;49.456;2023-05-27T02:07:33;16.13;;;6.47;;
67554;SDS011;54385;53.516;49.456;2023-05-27T02:09:59;10.40;;;5.95;;
67554;SDS011;54385;53.516;49.456;2023-05-27T02:12:25;13.07;;;6.10;;
67554;SDS011;54385;53.516;49.456;2023-05-27T02:14:52;15.02;;;5.80;;
67554;SDS011;54385;53.516;49.456;2023-05-27T02:17:19;14.85;;;6.13;;
67554;SDS011;54385;53.516;49.456;2023-05-27T02:19:45;11.35;;;5.85;;
67554;SDS011;54385;53.516;49.456;2023-05-27T02:22:12;13.65;;;6.18;;
67554;SDS011;54385;53.516;49.456;2023-05-27T02:24:39;18.65;;;6.43;;
67554;SDS011;54385;53.516;49.456;2023-05-27T02:27:05;17.27;;;7.10;;
67554;SDS011;54385;53.516;49.456;2023-05-27T02:29:32;10.65;;;6.60;;
67554;SDS011;54385;53.516;49.456;2023-05-27T02:31:58;11.68;;;6.43;;
67554;SDS011;54385;53.516;49.456;2023-05-27T02:34:25;11.93;;;5.40;;
67554;SDS011;54385;53.516;49.456;2023-05-27T02:36:51;16.08;;;5.90;;
67554;SDS011;54385;53.516;49.456;2023-05-27T02:39:18;11.70;;;5.72;;
67554;SDS011;54385;53.516;49.456;2023-05-27T02:41:45;9.63;;;5.60;;
67554;SDS011;54385;53.516;49.456;2023-05-27T02:44:11;13.60;;;6.57;;
67554;SDS011;54385;53.516;49.456;2023-05-27T02:46:38;14.52;;;6.10;;
67554;SDS011;54385;53.516;49.456;2023-05-27T02:49:04;13.27;;;5.95;;
67554;SDS011;54385;53.516;49.456;2023-05-27T02:51:30;15.95;;;6.00;;
67554;SDS011;54385;53.516;49.456;2023-05-27T02:53:57;13.77;;;6.18;;
67554;SDS011;54385;53.516;49.456;2023-05-27T02:56:23;12.52;;;5.82;;
67554;SDS011;54385;53.516;49.456;2023-05-27T02:58:51;15.45;;;6.57;;
67554;SDS011;54385;53.516;49.456;2023-05-27T03:01:18;12.20;;;5.97;;
67554;SDS011;54385;53.516;49.456;2023-05-27T03:03:45;11.05;;;6.13;;
67554;SDS011;54385;53.516;49.456;2023-05-27T03:06:12;14.07;;;5.85;;
67554;SDS011;54385;53.516;49.456;2023-05-27T03:08:38;14.32;;;5.53;;
67554;SDS011;54385;53.516;49.456;2023-05-27T03:11:06;16.80;;;5.88;;
67554;SDS011;54385;53.516;49.456;2023-05-27T03:13:32;9.32;;;5.55;;
67554;SDS011;54385;53.516;49.456;2023-05-27T03:15:58;11.68;;;5.65;;
67554;SDS011;54385;53.516;49.456;2023-05-27T03:18:25;15.18;;;6.05;;
67554;SDS011;54385;53.516;49.456;2023-05-27T03:20:53;10.80;;;5.47;;
67554;SDS011;54385;53.516;49.456;2023-05-27T03:23:19;35.83;;;7.32;;
67554;SDS011;54385;53.516;49.456;2023-05-27T03:25:46;14.38;;;6.40;;
67554;SDS011;54385;53.516;49.456;2023-05-27T03:28:13;16.77;;;6.20;;
67554;SDS011;54385;53.516;49.456;2023-05-27T03:30:41;10.95;;;6.25;;
67554;SDS011;54385;53.516;49.456;2023-05-27T03:33:09;16.50;;;5.88;;
67554;SDS011;54385;53.516;49.456;2023-05-27T03:35:35;14.05;;;6.38;;
67554;SDS011;54385;53.516;49.456;2023-05-27T03:38:02;10.48;;;5.65;;
67554;SDS011;54385;53.516;49.456;2023-05-27T03:40:28;12.90;;;6.35;;
67554;SDS011;54385;53.516;49.456;2023-05-27T03:42:56;14.55;;;5.15;;
67554;SDS011;54385;53.516;49.456;2023-05-27T03:45:22;15.20;;;5.50;;
67554;SDS011;54385;53.516;49.456;2023-05-27T03:47:49;13.32;;;5.90;;
67554;SDS011;54385;53.516;49.456;2023-05-27T03:50:15;10.68;;;5.45;;
67554;SDS011;54385;53.516;49.456;2023-05-27T03:52:41;11.73;;;5.70;;
67554;SDS011;54385;53.516;49.456;2023-05-27T03:55:08;13.57;;;5.90;;
67554;SDS011;54385;53.516;49.456;2023-05-27T03:57:35;15.50;;;6.32;;
67554;SDS011;54385;53.516;49.456;2023-05-27T04:00:02;15.13;;;6.63;;
67554;SDS011;54385;53.516;49.456;2023-05-27T04:02:33;11.02;;;5.30;;
67554;SDS011;54385;53.516;49.456;2023-05-27T04:05:00;14.30;;;5.93;;
67554;SDS011;54385;53.516;49.456;2023-05-27T04:07:27;16.88;;;5.82;;
67554;SDS011;54385;53.516;49.456;2023-05-27T04:09:54;13.38;;;5.68;;
67554;SDS011;54385;53.516;49.456;2023-05-27T04:12:21;13.57;;;5.53;;
67554;SDS011;54385;53.516;49.456;2023-05-27T04:14:47;14.85;;;6.07;;
67554;SDS011;54385;53.516;49.456;2023-05-27T04:17:14;11.50;;;5.18;;
67554;SDS011;54385;53.516;49.456;2023-05-27T04:19:40;17.65;;;6.07;;
67554;SDS011;54385;53.516;49.456;2023-05-27T04:22:07;16.75;;;5.70;;
67554;SDS011;54385;53.516;49.456;2023-05-27T04:24:33;15.43;;;5.15;;
67554;SDS011;54385;53.516;49.456;2023-05-27T04:27:00;12.52;;;4.60;;
67554;SDS011;54385;53.516;49.456;2023-05-27T04:29:28;13.93;;;5.25;;
67554;SDS011;54385;53.516;49.456;2023-05-27T04:31:57;13.75;;;5.35;;
67554;SDS011;54385;53.516;49.456;2023-05-27T04:34:24;18.02;;;5.10;;
67554;SDS011;54385;53.516;49.456;2023-05-27T04:36:51;15.82;;;4.60;;
67554;SDS011;54385;53.516;49.456;2023-05-27T04:39:18;14.43;;;5.22;;
67554;SDS011;54385;53.516;49.456;2023-05-27T04:41:44;12.32;;;4.03;;
67554;SDS011;54385;53.516;49.456;2023-05-27T04:44:11;16.15;;;4.82;;
67554;SDS011;54385;53.516;49.456;2023-05-27T04:46:38;14.55;;;5.45;;
67554;SDS011;54385;53.516;49.456;2023-05-27T04:49:06;13.32;;;4.80;;
67554;SDS011;54385;53.516;49.456;2023-05-27T04:51:32;12.95;;;4.80;;
67554;SDS011;54385;53.516;49.456;2023-05-27T04:54:01;14.95;;;5.15;;
67554;SDS011;54385;53.516;49.456;2023-05-27T04:56:28;15.68;;;4.90;;
67554;SDS011;54385;53.516;49.456;2023-05-27T04:58:54;12.10;;;5.00;;
67554;SDS011;54385;53.516;49.456;2023-05-27T05:01:21;14.63;;;4.55;;
67554;SDS011;54385;53.516;49.456;2023-05-27T05:03:50;17.25;;;5.47;;
67554;SDS011;54385;53.516;49.456;2023-05-27T05:06:40;16.77;;;5.55;;
67554;SDS011;54385;53.516;49.456;2023-05-27T05:09:07;12.10;;;5.75;;
67554;SDS011;54385;53.516;49.456;2023-05-27T05:11:34;15.80;;;5.15;;
67554;SDS011;54385;53.516;49.456;2023-05-27T05:14:01;11.02;;;4.55;;
67554;SDS011;54385;53.516;49.456;2023-05-27T05:16:36;19.63;;;6.00;;
67554;SDS011;54385;53.516;49.456;2023-05-27T05:19:03;18.40;;;5.00;;
67554;SDS011;54385;53.516;49.456;2023-05-27T05:21:29;14.48;;;5.22;;
67554;SDS011;54385;53.516;49.456;2023-05-27T05:23:56;15.77;;;5.10;;
67554;SDS011;54385;53.516;49.456;2023-05-27T05:26:22;17.38;;;5.53;;
67554;SDS011;54385;53.516;49.456;2023-05-27T05:28:49;16.30;;;5.10;;
67554;SDS011;54385;53.516;49.456;2023-05-27T05:31:15;29.75;;;6.45;;
67554;SDS011;54385;53.516;49.456;2023-05-27T05:33:42;10.38;;;5.13;;
67554;SDS011;54385;53.516;49.456;2023-05-27T05:36:08;13.65;;;5.47;;
67554;SDS011;54385;53.516;49.456;2023-05-27T05:38:35;17.13;;;6.28;;
67554;SDS011;54385;53.516;49.456;2023-05-27T05:41:02;13.73;;;5.32;;
67554;SDS011;54385;53.516;49.456;2023-05-27T05:43:29;14.80;;;5.68;;
67554;SDS011;54385;53.516;49.456;2023-05-27T05:45:55;15.73;;;5.88;;
67554;SDS011;54385;53.516;49.456;2023-05-27T05:48:22;15.57;;;5.60;;
67554;SDS011;54385;53.516;49.456;2023-05-27T05:50:48;19.55;;;5.95;;
67554;SDS011;54385;53.516;49.456;2023-05-27T05:53:15;16.88;;;6.22;;
67554;SDS011;54385;53.516;49.456;2023-05-27T05:55:41;19.83;;;5.88;;
67554;SDS011;54385;53.516;49.456;2023-05-27T05:58:08;11.20;;;5.03;;
67554;SDS011;54385;53.516;49.456;2023-05-27T06:00:34;15.35;;;5.32;;
67554;SDS011;54385;53.516;49.456;2023-05-27T06:03:01;13.88;;;6.53;;
67554;SDS011;54385;53.516;49.456;2023-05-27T06:05:28;10.25;;;5.63;;
67554;SDS011;54385;53.516;49.456;2023-05-27T06:07:54;14.68;;;5.63;;
67554;SDS011;54385;53.516;49.456;2023-05-27T06:10:20;13.57;;;5.50;;
67554;SDS011;54385;53.516;49.456;2023-05-27T06:12:47;15.68;;;6.10;;
67554;SDS011;54385;53.516;49.456;2023-05-27T06:15:13;12.68;;;5.70;;
67554;SDS011;54385;53.516;49.456;2023-05-27T06:17:40;15.63;;;6.90;;
67554;SDS011;54385;53.516;49.456;2023-05-27T06:20:07;13.27;;;5.80;;
67554;SDS011;54385;53.516;49.456;2023-05-27T06:22:33;14.50;;;5.55;;
67554;SDS011;54385;53.516;49.456;2023-05-27T06:25:00;14.00;;;5.80;;
67554;SDS011;54385;53.516;49.456;2023-05-27T06:27:26;13.82;;;5.60;;
67554;SDS011;54385;53.516;49.456;2023-05-27T06:29:53;13.43;;;5.68;;
67554;SDS011;54385;53.516;49.456;2023-05-27T06:32:19;15.77;;;5.55;;
67554;SDS011;54385;53.516;49.456;2023-05-27T06:34:46;15.70;;;6.13;;
67554;SDS011;54385;53.516;49.456;2023-05-27T06:37:12;10.60;;;5.88;;
67554;SDS011;54385;53.516;49.456;2023-05-27T06:39:39;17.55;;;5.53;;
67554;SDS011;54385;53.516;49.456;2023-05-27T06:42:05;15.60;;;5.38;;
67554;SDS011;54385;53.516;49.456;2023-05-27T06:44:32;15.00;;;5.55;;
67554;SDS011;54385;53.516;49.456;2023-05-27T06:46:58;19.33;;;6.40;;
67554;SDS011;54385;53.516;49.456;2023-05-27T06:49:25;19.63;;;6.18;;
67554;SDS011;54385;53.516;49.456;2023-05-27T06:51:51;11.68;;;5.20;;
67554;SDS011;54385;53.516;49.456;2023-05-27T06:54:17;13.20;;;5.20;;
67554;SDS011;54385;53.516;49.456;2023-05-27T06:56:44;18.83;;;5.72;;
67554;SDS011;54385;53.516;49.456;2023-05-27T06:59:10;17.08;;;6.03;;
67554;SDS011;54385;53.516;49.456;2023-05-27T07:01:37;18.10;;;6.35;;
67554;SDS011;54385;53.516;49.456;2023-05-27T07:04:03;14.02;;;5.53;;
67554;SDS011;54385;53.516;49.456;2023-05-27T07:06:30;12.73;;;5.93;;
67554;SDS011;54385;53.516;49.456;2023-05-27T07:08:57;18.40;;;5.88;;
67554;SDS011;54385;53.516;49.456;2023-05-27T07:11:23;14.88;;;5.70;;
67554;SDS011;54385;53.516;49.456;2023-05-27T07:13:51;16.58;;;5.95;;
67554;SDS011;54385;53.516;49.456;2023-05-27T07:16:17;14.65;;;5.20;;
67554;SDS011;54385;53.516;49.456;2023-05-27T07:18:44;11.40;;;5.10;;
67554;SDS011;54385;53.516;49.456;2023-05-27T07:21:13;18.17;;;5.68;;
67554;SDS011;54385;53.516;49.456;2023-05-27T07:23:40;16.95;;;5.03;;
67554;SDS011;54385;53.516;49.456;2023-05-27T07:26:06;16.10;;;5.55;;
67554;SDS011;54385;53.516;49.456;2023-05-27T07:28:33;14.10;;;4.90;;
67554;SDS011;54385;53.516;49.456;2023-05-27T07:30:59;15.18;;;5.18;;
67554;SDS011;54385;53.516;49.456;2023-05-27T07:33:25;11.73;;;4.85;;
67554;SDS011;54385;53.516;49.456;2023-05-27T07:35:52;15.93;;;5.55;;
67554;SDS011;54385;53.516;49.456;2023-05-27T07:38:18;14.48;;;5.25;;
67554;SDS011;54385;53.516;49.456;2023-05-27T07:40:45;18.23;;;5.57;;
67554;SDS011;54385;53.516;49.456;2023-05-27T07:43:12;13.90;;;5.70;;
67554;SDS011;54385;53.516;49.456;2023-05-27T07:45:38;15.40;;;5.63;;
67554;SDS011;54385;53.516;49.456;2023-05-27T07:48:05;16.38;;;6.43;;
67554;SDS011;54385;53.516;49.456;2023-05-27T07:50:31;13.88;;;5.72;;
67554;SDS011;54385;53.516;49.456;2023-05-27T07:52:58;18.80;;;6.03;;
67554;SDS011;54385;53.516;49.456;2023-05-27T07:55:24;17.67;;;5.60;;
67554;SDS011;54385;53.516;49.456;2023-05-27T07:57:51;14.55;;;6.10;;
67554;SDS011;54385;53.516;49.456;2023-05-27T08:00:19;15.98;;;5.55;;
67554;SDS011;54385;53.516;49.456;2023-05-27T08:02:46;15.82;;;5.03;;
67554;SDS011;54385;53.516;49.456;2023-05-27T08:05:12;16.23;;;5.28;;
67554;SDS011;54385;53.516;49.456;2023-05-27T08:07:39;17.25;;;5.28;;
67554;SDS011;54385;53.516;49.456;2023-05-27T08:10:05;15.75;;;4.88;;
67554;SDS011;54385;53.516;49.456;2023-05-27T08:12:33;14.68;;;5.35;;
67554;SDS011;54385;53.516;49.456;2023-05-27T08:15:00;14.73;;;5.00;;
67554;SDS011;54385;53.516;49.456;2023-05-27T08:17:26;16.27;;;4.50;;
67554;SDS011;54385;53.516;49.456;2023-05-27T08:19:53;17.25;;;5.25;;
67554;SDS011;54385;53.516;49.456;2023-05-27T08:22:19;15.98;;;5.10;;
67554;SDS011;54385;53.516;49.456;2023-05-27T08:24:46;18.38;;;5.10;;
67554;SDS011;54385;53.516;49.456;2023-05-27T08:27:15;15.70;;;4.50;;
67554;SDS011;54385;53.516;49.456;2023-05-27T08:29:42;16.10;;;4.47;;
67554;SDS011;54385;53.516;49.456;2023-05-27T08:32:09;15.85;;;5.15;;
67554;SDS011;54385;53.516;49.456;2023-05-27T08:34:36;15.82;;;5.25;;
67554;SDS011;54385;53.516;49.456;2023-05-27T08:37:03;19.13;;;4.85;;
67554;SDS011;54385;53.516;49.456;2023-05-27T08:39:30;17.55;;;5.78;;
67554;SDS011;54385;53.516;49.456;2023-05-27T08:41:57;14.68;;;4.88;;
67554;SDS011;54385;53.516;49.456;2023-05-27T08:44:26;16.45;;;5.38;;
67554;SDS011;54385;53.516;49.456;2023-05-27T08:46:52;16.05;;;5.18;;
67554;SDS011;54385;53.516;49.456;2023-05-27T08:49:21;19.08;;;5.43;;
67554;SDS011;54385;53.516;49.456;2023-05-27T08:51:47;15.70;;;5.25;;
67554;SDS011;54385;53.516;49.456;2023-05-27T08:54:16;22.20;;;5.82;;
67554;SDS011;54385;53.516;49.456;2023-05-27T08:56:43;14.10;;;5.13;;
67554;SDS011;54385;53.516;49.456;2023-05-27T08:59:12;16.70;;;4.95;;
67554;SDS011;54385;53.516;49.456;2023-05-27T09:01:39;17.50;;;4.95;;
67554;SDS011;54385;53.516;49.456;2023-05-27T09:04:07;18.75;;;5.15;;
67554;SDS011;54385;53.516;49.456;2023-05-27T09:06:34;15.63;;;5.05;;
67554;SDS011;54385;53.516;49.456;2023-05-27T09:09:00;21.35;;;6.03;;
67554;SDS011;54385;53.516;49.456;2023-05-27T09:11:27;17.83;;;5.18;;
67554;SDS011;54385;53.516;49.456;2023-05-27T09:13:56;13.93;;;5.00;;
67554;SDS011;54385;53.516;49.456;2023-05-27T09:16:22;14.27;;;5.00;;
67554;SDS011;54385;53.516;49.456;2023-05-27T09:18:49;18.95;;;5.20;;
67554;SDS011;54385;53.516;49.456;2023-05-27T09:21:16;24.95;;;5.57;;
67554;SDS011;54385;53.516;49.456;2023-05-27T09:23:43;18.20;;;6.05;;
67554;SDS011;54385;53.516;49.456;2023-05-27T09:26:09;17.10;;;5.75;;
67554;SDS011;54385;53.516;49.456;2023-05-27T09:28:36;11.98;;;4.45;;
67554;SDS011;54385;53.516;49.456;2023-05-27T09:31:04;10.68;;;4.88;;
67554;SDS011;54385;53.516;49.456;2023-05-27T09:33:36;14.68;;;4.60;;
67554;SDS011;54385;53.516;49.456;2023-05-27T09:36:05;17.05;;;5.10;;
67554;SDS011;54385;53.516;49.456;2023-05-27T09:38:32;23.48;;;5.35;;
67554;SDS011;54385;53.516;49.456;2023-05-27T09:41:00;12.82;;;4.45;;
67554;SDS011;54385;53.516;49.456;2023-05-27T09:43:28;14.43;;;4.28;;
67554;SDS011;54385;53.516;49.456;2023-05-27T09:45:59;17.77;;;4.95;;
67554;SDS011;54385;53.516;49.456;2023-05-27T09:48:28;14.35;;;5.15;;
67554;SDS011;54385;53.516;49.456;2023-05-27T09:53:26;11.57;;;4.20;;
67554;SDS011;54385;53.516;49.456;2023-05-27T09:55:53;13.80;;;4.30;;
67554;SDS011;54385;53.516;49.456;2023-05-27T09:58:21;14.68;;;4.80;;
67554;SDS011;54385;53.516;49.456;2023-05-27T10:00:48;15.43;;;4.90;;
67554;SDS011;54385;53.516;49.456;2023-05-27T10:03:16;15.88;;;4.93;;
67554;SDS011;54385;53.516;49.456;2023-05-27T10:05:44;13.20;;;4.63;;
67554;SDS011;54385;53.516;49.456;2023-05-27T10:08:13;13.68;;;5.50;;
67554;SDS011;54385;53.516;49.456;2023-05-27T10:10:39;16.13;;;5.22;;
67554;SDS011;54385;53.516;49.456;2023-05-27T10:13:06;14.48;;;4.47;;
67554;SDS011;54385;53.516;49.456;2023-05-27T10:15:33;14.85;;;4.78;;
67554;SDS011;54385;53.516;49.456;2023-05-27T10:18:04;12.10;;;5.10;;
67554;SDS011;54385;53.516;49.456;2023-05-27T10:23:09;11.13;;;4.95;;
67554;SDS011;54385;53.516;49.456;2023-05-27T10:25:39;11.00;;;5.13;;
67554;SDS011;54385;53.516;49.456;2023-05-27T10:28:25;17.45;;;5.68;;
67554;SDS011;54385;53.516;49.456;2023-05-27T10:30:53;15.60;;;5.68;;
67554;SDS011;54385;53.516;49.456;2023-05-27T10:33:29;14.63;;;5.28;;
67554;SDS011;54385;53.516;49.456;2023-05-27T10:39:02;20.77;;;5.47;;
67554;SDS011;54385;53.516;49.456;2023-05-27T10:44:28;19.45;;;5.15;;
67554;SDS011;54385;53.516;49.456;2023-05-27T10:47:08;15.07;;;5.40;;
67554;SDS011;54385;53.516;49.456;2023-05-27T10:49:37;15.63;;;5.22;;
67554;SDS011;54385;53.516;49.456;2023-05-27T10:52:05;16.02;;;5.90;;
67554;SDS011;54385;53.516;49.456;2023-05-27T10:54:39;14.18;;;5.20;;
67554;SDS011;54385;53.516;49.456;2023-05-27T10:57:07;10.85;;;4.85;;
67554;SDS011;54385;53.516;49.456;2023-05-27T10:59:55;12.25;;;5.25;;
67554;SDS011;54385;53.516;49.456;2023-05-27T11:02:24;20.60;;;6.47;;
67554;SDS011;54385;53.516;49.456;2023-05-27T11:04:58;12.82;;;4.95;;
67554;SDS011;54385;53.516;49.456;2023-05-27T11:07:24;17.75;;;5.15;;
67554;SDS011;54385;53.516;49.456;2023-05-27T11:09:52;13.88;;;4.88;;
67554;SDS011;54385;53.516;49.456;2023-05-27T11:12:20;19.77;;;5.28;;
67554;SDS011;54385;53.516;49.456;2023-05-27T11:14:48;19.10;;;5.20;;
67554;SDS011;54385;53.516;49.456;2023-05-27T11:17:16;15.52;;;5.75;;
67554;SDS011;54385;53.516;49.456;2023-05-27T11:19:44;13.23;;;4.75;;
67554;SDS011;54385;53.516;49.456;2023-05-27T11:22:11;15.30;;;4.65;;
67554;SDS011;54385;53.516;49.456;2023-05-27T11:24:39;11.35;;;4.60;;
67554;SDS011;54385;53.516;49.456;2023-05-27T11:27:13;13.25;;;4.88;;
67554;SDS011;54385;53.516;49.456;2023-05-27T11:29:48;14.40;;;5.63;;
67554;SDS011;54385;53.516;49.456;2023-05-27T11:32:16;16.20;;;5.30;;
67554;SDS011;54385;53.516;49.456;2023-05-27T11:34:44;12.68;;;5.75;;
67554;SDS011;54385;53.516;49.456;2023-05-27T11:37:11;13.48;;;5.65;;
67554;SDS011;54385;53.516;49.456;2023-05-27T11:39:48;16.40;;;5.22;;
67554;SDS011;54385;53.516;49.456;2023-05-27T11:42:20;13.98;;;5.80;;
67554;SDS011;54385;53.516;49.456;2023-05-27T11:44:51;17.27;;;6.10;;
67554;SDS011;54385;53.516;49.456;2023-05-27T11:47:21;16.15;;;5.85;;
67554;SDS011;54385;53.516;49.456;2023-05-27T11:49:50;20.85;;;6.35;;
67554;SDS011;54385;53.516;49.456;2023-05-27T11:52:18;18.08;;;6.20;;
67554;SDS011;54385;53.516;49.456;2023-05-27T11:54:48;18.85;;;6.45;;
67554;SDS011;54385;53.516;49.456;2023-05-27T11:57:18;23.25;;;6.78;;
67554;SDS011;54385;53.516;49.456;2023-05-27T11:59:45;17.63;;;5.68;;
67554;SDS011;54385;53.516;49.456;2023-05-27T12:02:11;18.10;;;6.25;;
67554;SDS011;54385;53.516;49.456;2023-05-27T12:04:38;16.50;;;6.20;;
67554;SDS011;54385;53.516;49.456;2023-05-27T12:07:04;17.38;;;6.05;;
67554;SDS011;54385;53.516;49.456;2023-05-27T12:09:31;22.58;;;6.30;;
67554;SDS011;54385;53.516;49.456;2023-05-27T12:11:57;17.50;;;6.68;;
67554;SDS011;54385;53.516;49.456;2023-05-27T12:14:24;40.05;;;7.90;;
67554;SDS011;54385;53.516;49.456;2023-05-27T12:16:50;19.95;;;7.00;;
67554;SDS011;54385;53.516;49.456;2023-05-27T12:19:17;22.25;;;8.23;;
67554;SDS011;54385;53.516;49.456;2023-05-27T12:21:43;17.95;;;6.90;;
67554;SDS011;54385;53.516;49.456;2023-05-27T12:24:10;18.75;;;6.30;;
67554;SDS011;54385;53.516;49.456;2023-05-27T12:26:36;19.48;;;7.47;;
67554;SDS011;54385;53.516;49.456;2023-05-27T12:29:03;14.20;;;6.68;;
67554;SDS011;54385;53.516;49.456;2023-05-27T12:31:29;20.10;;;6.20;;
67554;SDS011;54385;53.516;49.456;2023-05-27T12:33:55;18.52;;;6.32;;
67554;SDS011;54385;53.516;49.456;2023-05-27T12:36:22;17.77;;;6.13;;
67554;SDS011;54385;53.516;49.456;2023-05-27T12:38:48;18.20;;;5.55;;
67554;SDS011;54385;53.516;49.456;2023-05-27T12:41:15;17.90;;;6.85;;
67554;SDS011;54385;53.516;49.456;2023-05-27T12:43:41;21.52;;;7.25;;
67554;SDS011;54385;53.516;49.456;2023-05-27T12:46:07;20.98;;;6.43;;
67554;SDS011;54385;53.516;49.456;2023-05-27T12:48:34;21.50;;;6.00;;
67554;SDS011;54385;53.516;49.456;2023-05-27T12:51:00;26.13;;;6.97;;
67554;SDS011;54385;53.516;49.456;2023-05-27T12:53:27;26.17;;;6.25;;
67554;SDS011;54385;53.516;49.456;2023-05-27T12:55:53;14.88;;;5.82;;
67554;SDS011;54385;53.516;49.456;2023-05-27T12:58:20;20.25;;;7.00;;
67554;SDS011;54385;53.516;49.456;2023-05-27T13:00:46;17.20;;;6.18;;
67554;SDS011;54385;53.516;49.456;2023-05-27T13:03:14;17.23;;;6.28;;
67554;SDS011;54385;53.516;49.456;2023-05-27T13:05:40;20.42;;;5.80;;
67554;SDS011;54385;53.516;49.456;2023-05-27T13:08:07;18.25;;;6.20;;
67554;SDS011;54385;53.516;49.456;2023-05-27T13:10:33;16.75;;;6.55;;
67554;SDS011;54385;53.516;49.456;2023-05-27T13:13:00;23.92;;;7.45;;
67554;SDS011;54385;53.516;49.456;2023-05-27T13:15:28;20.63;;;6.78;;
67554;SDS011;54385;53.516;49.456;2023-05-27T13:17:55;24.30;;;6.88;;
67554;SDS011;54385;53.516;49.456;2023-05-27T13:20:22;22.23;;;8.15;;
67554;SDS011;54385;53.516;49.456;2023-05-27T13:22:49;23.50;;;7.72;;
67554;SDS011;54385;53.516;49.456;2023-05-27T13:25:16;22.08;;;8.60;;
67554;SDS011;54385;53.516;49.456;2023-05-27T13:27:43;22.65;;;8.27;;
67554;SDS011;54385;53.516;49.456;2023-05-27T13:30:13;18.77;;;9.18;;
67554;SDS011;54385;53.516;49.456;2023-05-27T13:32:40;23.17;;;8.77;;
67554;SDS011;54385;53.516;49.456;2023-05-27T13:35:08;19.95;;;8.10;;
67554;SDS011;54385;53.516;49.456;2023-05-27T13:37:37;19.30;;;7.78;;
67554;SDS011;54385;53.516;49.456;2023-05-27T13:40:05;25.85;;;8.20;;
67554;SDS011;54385;53.516;49.456;2023-05-27T13:42:32;21.65;;;8.73;;
67554;SDS011;54385;53.516;49.456;2023-05-27T13:44:58;26.40;;;8.27;;
67554;SDS011;54385;53.516;49.456;2023-05-27T13:47:25;20.23;;;9.25;;
67554;SDS011;54385;53.516;49.456;2023-05-27T13:49:51;19.88;;;9.35;;
67554;SDS011;54385;53.516;49.456;2023-05-27T13:52:18;21.88;;;9.52;;
67554;SDS011;54385;53.516;49.456;2023-05-27T13:54:44;22.60;;;8.80;;
67554;SDS011;54385;53.516;49.456;2023-05-27T13:57:11;21.02;;;8.63;;
67554;SDS011;54385;53.516;49.456;2023-05-27T13:59:38;28.17;;;8.93;;
67554;SDS011;54385;53.516;49.456;2023-05-27T14:02:04;21.40;;;7.80;;
67554;SDS011;54385;53.516;49.456;2023-05-27T14:04:33;20.23;;;7.18;;
67554;SDS011;54385;53.516;49.456;2023-05-27T14:07:00;32.50;;;8.73;;
67554;SDS011;54385;53.516;49.456;2023-05-27T14:09:27;24.40;;;8.43;;
67554;SDS011;54385;53.516;49.456;2023-05-27T14:11:54;24.17;;;8.23;;
67554;SDS011;54385;53.516;49.456;2023-05-27T14:14:21;20.25;;;8.85;;
67554;SDS011;54385;53.516;49.456;2023-05-27T14:16:47;19.13;;;7.50;;
67554;SDS011;54385;53.516;49.456;2023-05-27T14:19:14;24.48;;;9.13;;
67554;SDS011;54385;53.516;49.456;2023-05-27T14:21:40;34.97;;;9.73;;
67554;SDS011;54385;53.516;49.456;2023-05-27T14:24:06;37.38;;;9.65;;
67554;SDS011;54385;53.516;49.456;2023-05-27T14:26:33;27.45;;;9.68;;
67554;SDS011;54385;53.516;49.456;2023-05-27T14:28:59;24.42;;;8.27;;
67554;SDS011;54385;53.516;49.456;2023-05-27T14:31:26;20.38;;;8.27;;
67554;SDS011;54385;53.516;49.456;2023-05-27T14:33:52;26.50;;;10.80;;
67554;SDS011;54385;53.516;49.456;2023-05-27T14:36:18;33.13;;;11.65;;